createdAt,value
2018-08-22T00:00:47.770Z,61.32
2018-08-22T00:02:24.159Z,62.47
2018-08-22T00:03:59.982Z,61.85
2018-08-22T00:05:35.366Z,61.60
2018-08-22T00:07:12.668Z,61.86
2018-08-22T00:08:47.940Z,62.15
2018-08-22T00:10:26.813Z,61.34
2018-08-22T00:12:04.009Z,61.63
2018-08-22T00:13:38.950Z,61.40
2018-08-22T00:15:16.764Z,61.88
2018-08-22T00:16:52.864Z,61.63
2018-08-22T00:18:29.145Z,61.40
2018-08-22T00:20:04.503Z,62.48
2018-08-22T00:21:41.993Z,61.58
2018-08-22T00:23:17.540Z,62.45
2018-08-22T00:24:54.905Z,62.97
2018-08-22T00:26:30.881Z,62.01
2018-08-22T00:28:06.401Z,62.26
2018-08-22T00:29:43.142Z,62.45
2018-08-22T00:31:19.077Z,61.83
2018-08-22T00:32:54.663Z,62.15
2018-08-22T00:34:31.495Z,62.49
2018-08-22T00:36:06.897Z,62.31
2018-08-22T00:37:41.801Z,62.90
2018-08-22T00:39:16.756Z,62.34
2018-08-22T00:40:52.091Z,63.22
2018-08-22T00:42:27.970Z,63.57
2018-08-22T00:44:04.252Z,63.42
2018-08-22T00:45:39.609Z,63.52
2018-08-22T00:47:15.232Z,63.03
2018-08-22T00:48:51.817Z,63.10
2018-08-22T00:50:27.206Z,64.43
2018-08-22T00:52:03.282Z,64.61
2018-08-22T00:53:38.291Z,64.74
2018-08-22T00:55:14.092Z,64.33
2018-08-22T00:56:48.969Z,65.16
2018-08-22T00:58:24.314Z,65.53
2018-08-22T00:59:59.841Z,64.91
2018-08-22T01:01:35.190Z,65.49
2018-08-22T01:03:10.849Z,64.52
2018-08-22T01:04:46.265Z,66.72
2018-08-22T01:06:21.537Z,65.70
2018-08-22T01:07:56.534Z,65.67
2018-08-22T01:09:32.647Z,65.96
2018-08-22T01:11:09.000Z,66.51
2018-08-22T01:12:46.280Z,65.94
2018-08-22T01:14:21.410Z,66.36
2018-08-22T01:15:56.332Z,67.17
2018-08-22T01:17:32.017Z,67.37
2018-08-22T01:19:07.707Z,68.01
2018-08-22T01:20:42.769Z,68.10
2018-08-22T01:22:18.054Z,68.06
2018-08-22T01:23:54.171Z,67.94
2018-08-22T01:25:31.415Z,67.65
2018-08-22T01:27:06.768Z,68.77
2018-08-22T01:28:42.828Z,68.54
2018-08-22T01:30:19.746Z,68.87
2018-08-22T01:31:56.553Z,68.22
2018-08-22T01:33:34.235Z,67.51
2018-08-22T01:35:09.710Z,68.56
2018-08-22T01:36:45.553Z,68.24
2018-08-22T01:38:23.873Z,68.72
2018-08-22T01:40:00.709Z,68.89
2018-08-22T01:41:36.416Z,68.48
2018-08-22T01:43:12.157Z,68.56
2018-08-22T01:44:48.303Z,68.73
2018-08-22T01:46:24.272Z,67.92
2018-08-22T01:47:59.556Z,67.99
2018-08-22T01:49:35.340Z,69.03
2018-08-22T01:51:10.626Z,68.39
2018-08-22T01:52:45.624Z,68.80
2018-08-22T01:54:20.903Z,69.38
2018-08-22T01:55:56.503Z,68.82
2018-08-22T01:57:33.328Z,69.57
2018-08-22T01:59:11.071Z,69.74
2018-08-22T02:00:46.445Z,69.83
2018-08-22T02:02:21.370Z,69.63
2018-08-22T02:03:56.619Z,69.88
2018-08-22T02:05:32.228Z,70.14
2018-08-22T02:07:07.537Z,69.83
2018-08-22T02:08:42.956Z,69.72
2018-08-22T02:10:18.348Z,70.34
2018-08-22T02:11:53.920Z,70.66
2018-08-22T02:13:30.334Z,70.30
2018-08-22T02:15:07.428Z,71.04
2018-08-22T02:16:43.693Z,70.88
2018-08-22T02:18:19.049Z,71.13
2018-08-22T02:19:54.618Z,71.26
2018-08-22T02:21:29.593Z,70.98
2018-08-22T02:23:04.738Z,71.50
2018-08-22T02:24:40.099Z,71.24
2018-08-22T02:26:15.551Z,71.39
2018-08-22T02:27:50.596Z,71.55
2018-08-22T02:29:26.091Z,71.53
2018-08-22T02:31:01.210Z,71.40
2018-08-22T02:32:36.478Z,70.97
2018-08-22T02:34:12.784Z,71.70
2018-08-22T02:35:48.491Z,70.50
2018-08-22T02:37:23.770Z,70.17
2018-08-22T02:38:59.751Z,71.17
2018-08-22T02:40:35.098Z,71.12
2018-08-22T02:42:10.343Z,71.11
2018-08-22T02:43:45.760Z,71.09
2018-08-22T02:45:21.653Z,71.26
2018-08-22T02:46:56.623Z,71.54
2018-08-22T02:48:36.376Z,71.08
2018-08-22T02:50:11.404Z,71.27
2018-08-22T02:51:46.352Z,71.92
2018-08-22T02:53:21.425Z,71.59
2018-08-22T02:54:57.697Z,70.70
2018-08-22T02:56:35.711Z,71.11
2018-08-22T02:58:11.495Z,71.21
2018-08-22T02:59:46.866Z,70.41
2018-08-22T03:01:23.413Z,70.41
2018-08-22T03:03:01.130Z,70.64
2018-08-22T03:04:37.266Z,71.08
2018-08-22T03:06:12.124Z,70.75
2018-08-22T03:07:47.787Z,70.47
2018-08-22T03:09:22.817Z,69.64
2018-08-22T03:10:59.834Z,70.11
2018-08-22T03:12:35.264Z,70.27
2018-08-22T03:14:10.539Z,69.70
2018-08-22T03:15:46.062Z,70.48
2018-08-22T03:17:21.394Z,70.29
2018-08-22T03:18:57.115Z,70.45
2018-08-22T03:20:32.684Z,69.97
2018-08-22T03:22:08.237Z,70.32
2018-08-22T03:23:43.561Z,69.17
2018-08-22T03:25:19.642Z,69.58
2018-08-22T03:26:56.328Z,70.39
2018-08-22T03:28:32.754Z,70.65
2018-08-22T03:30:08.192Z,70.25
2018-08-22T03:31:43.433Z,70.51
2018-08-22T03:33:18.835Z,70.15
2018-08-22T03:34:53.931Z,71.06
2018-08-22T03:36:28.990Z,70.91
2018-08-22T03:38:04.293Z,70.66
2018-08-22T03:39:39.718Z,70.24
2018-08-22T03:41:15.770Z,70.93
2018-08-22T03:42:50.896Z,70.97
2018-08-22T03:44:25.933Z,70.54
2018-08-22T03:46:01.670Z,71.23
2018-08-22T03:47:37.260Z,71.49
2018-08-22T03:49:14.914Z,71.44
2018-08-22T03:50:51.066Z,70.56
2018-08-22T03:52:30.696Z,71.36
2018-08-22T03:54:12.673Z,71.33
2018-08-22T03:55:55.655Z,71.60
2018-08-22T03:57:36.760Z,72.40
2018-08-22T03:59:18.042Z,72.13
2018-08-22T04:00:53.327Z,71.74
2018-08-22T04:02:28.605Z,72.37
2018-08-22T04:04:03.691Z,72.40
2018-08-22T04:05:38.663Z,72.43
2018-08-22T04:07:13.863Z,72.15
2018-08-22T04:08:49.124Z,72.48
2018-08-22T04:10:25.810Z,72.15
2018-08-22T04:12:01.884Z,72.24
2018-08-22T04:13:37.025Z,72.52
2018-08-22T04:15:14.760Z,72.68
2018-08-22T04:16:50.269Z,72.57
2018-08-22T04:18:25.252Z,72.68
2018-08-22T04:20:00.333Z,72.57
2018-08-22T04:21:35.574Z,73.06
2018-08-22T04:23:10.892Z,72.39
2018-08-22T04:24:47.121Z,72.43
2018-08-22T04:26:22.093Z,73.10
2018-08-22T04:27:57.781Z,72.93
2018-08-22T04:29:33.728Z,72.91
2018-08-22T04:31:09.137Z,72.93
2018-08-22T04:32:46.785Z,73.16
2018-08-22T04:34:23.282Z,73.58
2018-08-22T04:35:59.888Z,73.39
2018-08-22T04:37:35.505Z,72.96
2018-08-22T04:39:10.956Z,72.85
2018-08-22T04:40:46.613Z,73.56
2018-08-22T04:42:22.025Z,73.43
2018-08-22T04:43:58.467Z,73.36
2018-08-22T04:45:33.941Z,73.73
2018-08-22T04:47:09.552Z,73.59
2018-08-22T04:48:45.168Z,73.33
2018-08-22T04:50:20.370Z,74.00
2018-08-22T04:51:55.477Z,73.61
2018-08-22T04:53:33.462Z,73.89
2018-08-22T04:55:08.819Z,73.91
2018-08-22T04:56:44.211Z,73.84
2018-08-22T04:58:19.309Z,73.91
2018-08-22T04:59:54.702Z,74.00
2018-08-22T05:01:29.908Z,73.57
2018-08-22T05:03:05.314Z,73.77
2018-08-22T05:04:40.727Z,73.33
2018-08-22T05:06:15.980Z,74.13
2018-08-22T05:07:50.941Z,73.90
2018-08-22T05:09:26.079Z,73.97
2018-08-22T05:11:01.448Z,73.33
2018-08-22T05:12:36.541Z,73.81
2018-08-22T05:14:11.633Z,73.85
2018-08-22T05:15:47.048Z,73.47
2018-08-22T05:17:22.261Z,72.88
2018-08-22T05:18:58.128Z,72.39
2018-08-22T05:20:33.551Z,72.70
2018-08-22T05:22:08.765Z,71.57
2018-08-22T05:23:45.546Z,72.43
2018-08-22T05:25:20.515Z,71.86
2018-08-22T05:26:59.334Z,71.43
2018-08-22T05:28:36.622Z,71.81
2018-08-22T05:30:16.506Z,70.83
2018-08-22T05:31:52.093Z,70.47
2018-08-22T05:33:27.343Z,70.62
2018-08-22T05:35:03.389Z,70.39
2018-08-22T05:36:38.384Z,70.81
2018-08-22T05:38:13.627Z,69.62
2018-08-22T05:39:49.406Z,69.82
2018-08-22T05:41:25.929Z,70.47
2018-08-22T05:43:01.520Z,69.60
2018-08-22T05:44:36.748Z,69.37
2018-08-22T05:46:12.433Z,69.73
2018-08-22T05:47:47.907Z,69.05
2018-08-22T05:49:24.786Z,68.92
2018-08-22T05:50:59.970Z,67.73
2018-08-22T05:52:35.257Z,67.63
2018-08-22T05:54:10.379Z,68.20
2018-08-22T05:55:45.869Z,67.07
2018-08-22T05:57:20.981Z,67.32
2018-08-22T05:58:56.734Z,66.45
2018-08-22T06:00:32.937Z,66.62
2018-08-22T06:02:08.602Z,66.00
2018-08-22T06:03:45.681Z,64.81
2018-08-22T06:05:23.681Z,65.00
2018-08-22T06:06:58.908Z,64.92
2018-08-22T06:08:33.879Z,64.19
2018-08-22T06:10:10.265Z,64.33
2018-08-22T06:11:45.644Z,64.33
2018-08-22T06:13:27.707Z,63.54
2018-08-22T06:15:09.689Z,63.69
2018-08-22T06:16:49.882Z,63.29
2018-08-22T06:18:25.209Z,62.28
2018-08-22T06:20:02.735Z,62.89
2018-08-22T06:21:37.869Z,62.26
2018-08-22T06:23:13.195Z,61.96
2018-08-22T06:24:49.200Z,61.80
2018-08-22T06:26:24.401Z,60.82
2018-08-22T06:27:59.440Z,60.92
2018-08-22T06:29:35.444Z,60.52
2018-08-22T06:31:11.055Z,59.75
2018-08-22T06:32:47.882Z,58.53
2018-08-22T06:34:23.221Z,58.00
2018-08-22T06:35:59.519Z,57.40
2018-08-22T06:37:34.871Z,56.92
2018-08-22T06:39:11.581Z,56.71
2018-08-22T06:40:47.621Z,55.87
2018-08-22T06:42:24.364Z,55.62
2018-08-22T06:44:00.008Z,54.58
2018-08-22T06:45:36.597Z,54.72
2018-08-22T06:47:12.365Z,53.58
2018-08-22T06:48:47.756Z,53.62
2018-08-22T06:50:23.109Z,53.92
2018-08-22T06:51:58.326Z,52.53
2018-08-22T06:53:33.575Z,51.68
2018-08-22T06:55:08.894Z,51.83
2018-08-22T06:56:44.061Z,51.44
2018-08-22T06:58:19.353Z,52.18
2018-08-22T06:59:55.651Z,51.29
2018-08-22T07:01:30.780Z,50.65
2018-08-22T07:03:07.205Z,51.31
2018-08-22T07:04:42.590Z,50.80
2018-08-22T07:06:17.909Z,51.33
2018-08-22T07:07:53.431Z,50.55
2018-08-22T07:09:28.700Z,49.99
2018-08-22T07:11:04.020Z,50.41
2018-08-22T07:12:39.191Z,50.54
2018-08-22T07:15:23.455Z,49.22
2018-08-22T07:16:58.499Z,49.68
2018-08-22T07:18:35.134Z,49.53
2018-08-22T07:20:10.530Z,48.83
2018-08-22T07:21:45.810Z,47.95
2018-08-22T07:23:21.172Z,48.84
2018-08-22T07:24:56.718Z,48.07
2018-08-22T07:26:35.045Z,48.02
2018-08-22T07:28:12.146Z,47.69
2018-08-22T07:29:48.889Z,47.61
2018-08-22T07:31:24.581Z,47.60
2018-08-22T07:33:03.317Z,48.05
2018-08-22T07:34:39.148Z,46.95
2018-08-22T07:36:15.728Z,46.66
2018-08-22T07:37:51.657Z,46.81
2018-08-22T07:39:29.247Z,45.98
2018-08-22T07:41:06.728Z,46.10
2018-08-22T07:42:42.009Z,46.42
2018-08-22T07:44:17.162Z,45.50
2018-08-22T07:45:52.428Z,45.47
2018-08-22T07:47:28.640Z,45.48
2018-08-22T07:49:06.253Z,46.13
2018-08-22T07:50:43.914Z,46.35
2018-08-22T07:52:21.510Z,45.40
2018-08-22T07:53:59.984Z,44.94
2018-08-22T07:55:41.566Z,44.88
2018-08-22T07:57:24.861Z,44.33
2018-08-22T07:59:17.397Z,44.93
2018-08-22T08:00:54.617Z,44.83
2018-08-22T08:02:31.999Z,44.81
2018-08-22T08:04:08.146Z,44.77
2018-08-22T08:05:43.907Z,45.50
2018-08-22T08:07:20.957Z,43.75
2018-08-22T08:08:57.110Z,44.30
2018-08-22T08:10:32.842Z,44.30
2018-08-22T08:12:08.486Z,44.92
2018-08-22T08:13:43.580Z,44.01
2018-08-22T08:15:18.729Z,45.33
2018-08-22T08:16:54.041Z,44.19
2018-08-22T08:18:31.356Z,43.77
2018-08-22T08:20:08.268Z,42.53
2018-08-22T08:21:43.373Z,43.84
2018-08-22T08:23:20.552Z,44.45
2018-08-22T08:24:55.605Z,43.40
2018-08-22T08:26:31.615Z,44.22
2018-08-22T08:28:09.988Z,43.65
2018-08-22T08:29:45.969Z,44.51
2018-08-22T08:31:21.771Z,44.67
2018-08-22T08:32:57.986Z,44.88
2018-08-22T08:34:33.738Z,44.33
2018-08-22T08:36:15.818Z,45.10
2018-08-22T08:37:52.347Z,44.83
2018-08-22T08:39:27.722Z,44.84
2018-08-22T08:41:03.441Z,44.28
2018-08-22T08:42:41.660Z,44.75
2018-08-22T08:44:17.278Z,42.68
2018-08-22T08:45:54.423Z,43.10
2018-08-22T08:47:34.395Z,43.69
2018-08-22T08:49:10.448Z,42.17
2018-08-22T08:50:47.566Z,44.48
2018-08-22T08:52:23.357Z,43.62
2018-08-22T08:54:00.005Z,43.86
2018-08-22T08:55:35.983Z,42.84
2018-08-22T08:57:13.113Z,42.58
2018-08-22T08:58:49.243Z,43.02
2018-08-22T09:00:26.105Z,43.51
2018-08-22T09:02:01.229Z,42.02
2018-08-22T09:03:36.374Z,42.10
2018-08-22T09:05:13.240Z,41.49
2018-08-22T09:06:49.681Z,42.12
2018-08-22T09:08:26.162Z,41.40
2018-08-22T09:10:01.336Z,41.63
2018-08-22T09:11:37.590Z,41.21
2018-08-22T09:13:13.450Z,40.62
2018-08-22T09:14:49.528Z,39.92
2018-08-22T09:16:25.044Z,41.09
2018-08-22T09:18:01.082Z,40.13
2018-08-22T09:19:37.537Z,39.99
2018-08-22T09:21:13.064Z,40.43
2018-08-22T09:22:48.188Z,40.73
2018-08-22T09:24:24.897Z,39.99
2018-08-22T09:26:01.543Z,40.17
2018-08-22T09:27:37.698Z,39.68
2018-08-22T09:29:13.629Z,40.87
2018-08-22T09:30:49.385Z,40.16
2018-08-22T09:32:26.766Z,39.97
2018-08-22T09:34:02.191Z,39.39
2018-08-22T09:35:37.538Z,37.82
2018-08-22T09:37:12.879Z,38.56
2018-08-22T09:38:54.548Z,39.09
2018-08-22T09:40:30.388Z,37.78
2018-08-22T09:42:05.687Z,37.67
2018-08-22T09:43:42.537Z,38.00
2018-08-22T09:45:20.474Z,37.29
2018-08-22T09:46:58.559Z,38.50
2018-08-22T09:48:36.289Z,37.73
2018-08-22T09:50:12.440Z,38.25
2018-08-22T09:51:51.515Z,38.21
2018-08-22T09:53:27.321Z,37.66
2018-08-22T09:55:04.640Z,38.56
2018-08-22T09:56:41.419Z,38.68
2018-08-22T09:58:20.518Z,38.22
2018-08-22T10:00:04.198Z,38.02
2018-08-22T10:01:44.867Z,38.81
2018-08-22T10:03:20.159Z,36.45
2018-08-22T10:04:56.175Z,35.83
2018-08-22T10:06:45.401Z,36.39
2018-08-22T10:08:20.644Z,35.90
2018-08-22T10:09:56.390Z,34.16
2018-08-22T10:11:31.684Z,35.00
2018-08-22T10:13:08.990Z,35.66
2018-08-22T10:14:44.573Z,36.27
2018-08-22T10:16:20.168Z,35.94
2018-08-22T10:17:56.022Z,34.48
2018-08-22T10:19:32.868Z,35.71
2018-08-22T10:21:08.912Z,35.58
2018-08-22T10:22:44.333Z,35.51
2018-08-22T10:24:19.305Z,35.05
2018-08-22T10:26:01.605Z,33.96
2018-08-22T10:27:38.687Z,35.44
2018-08-22T10:29:15.465Z,34.67
2018-08-22T10:30:51.515Z,33.55
2018-08-22T10:32:27.038Z,34.29
2018-08-22T10:34:03.047Z,33.45
2018-08-22T10:35:39.278Z,34.28
2018-08-22T10:37:14.757Z,35.02
2018-08-22T10:38:51.391Z,33.58
2018-08-22T10:40:26.557Z,34.46
2018-08-22T10:42:03.690Z,33.83
2018-08-22T10:43:38.965Z,34.16
2018-08-22T10:45:16.824Z,34.67
2018-08-22T10:46:52.880Z,34.57
2018-08-22T10:48:30.553Z,34.50
2018-08-22T10:50:06.950Z,32.76
2018-08-22T10:51:44.033Z,33.88
2018-08-22T10:53:22.446Z,33.97
2018-08-22T10:54:57.904Z,33.78
2018-08-22T10:56:37.173Z,33.03
2018-08-22T10:58:15.790Z,32.81
2018-08-22T10:59:53.400Z,32.89
2018-08-22T11:01:28.851Z,31.72
2018-08-22T11:03:05.551Z,33.51
2018-08-22T11:04:41.133Z,31.56
2018-08-22T11:06:20.586Z,32.29
2018-08-22T11:07:58.020Z,31.83
2018-08-22T11:09:36.450Z,33.13
2018-08-22T11:11:13.011Z,31.86
2018-08-22T11:13:59.017Z,33.33
2018-08-22T11:15:38.713Z,32.98
2018-08-22T11:17:17.465Z,32.04
2018-08-22T11:18:59.279Z,31.71
2018-08-22T11:20:42.665Z,33.14
2018-08-22T11:22:28.503Z,32.40
2018-08-22T11:24:14.705Z,31.09
2018-08-22T11:26:00.932Z,31.99
2018-08-22T11:27:47.169Z,31.21
2018-08-22T11:29:33.768Z,31.72
2018-08-22T11:31:21.388Z,33.01
2018-08-22T11:33:07.016Z,31.45
2018-08-22T11:34:46.997Z,30.82
2018-08-22T11:36:20.636Z,29.23
2018-08-22T11:37:57.571Z,30.42
2018-08-22T11:39:34.432Z,30.37
2018-08-22T11:41:11.791Z,31.38
2018-08-22T11:42:47.862Z,31.48
2018-08-22T11:44:24.203Z,32.29
2018-08-22T11:46:00.590Z,32.87
2018-08-22T11:47:38.124Z,34.37
2018-08-22T11:49:15.122Z,33.21
2018-08-22T11:50:51.177Z,34.47
2018-08-22T11:52:29.418Z,34.16
2018-08-22T11:54:08.714Z,33.95
2018-08-22T11:55:46.442Z,34.41
2018-08-22T11:57:23.127Z,33.63
2018-08-22T11:59:00.141Z,34.97
2018-08-22T12:00:40.960Z,35.68
2018-08-22T12:02:21.901Z,36.61
2018-08-22T12:03:59.673Z,34.39
2018-08-22T12:05:42.863Z,34.99
2018-08-22T12:07:23.408Z,35.40
2018-08-22T12:09:01.368Z,34.49
2018-08-22T12:10:43.599Z,33.46
2018-08-22T12:12:20.856Z,34.83
2018-08-22T12:14:02.611Z,34.74
2018-08-22T12:15:45.825Z,36.13
2018-08-22T12:17:31.781Z,34.28
2018-08-22T12:19:14.556Z,33.38
2018-08-22T12:20:52.780Z,33.06
2018-08-22T12:22:31.036Z,33.67
2018-08-22T12:24:11.331Z,33.20
2018-08-22T12:25:47.973Z,33.55
2018-08-22T12:27:25.210Z,32.97
2018-08-22T12:29:05.534Z,33.43
2018-08-22T12:30:44.521Z,33.73
2018-08-22T12:32:23.414Z,32.47
2018-08-22T12:34:03.550Z,31.85
2018-08-22T12:35:39.989Z,31.73
2018-08-22T12:37:22.867Z,32.04
2018-08-22T12:39:01.757Z,32.06
2018-08-22T12:40:37.941Z,32.64
2018-08-22T12:42:15.390Z,31.93
2018-08-22T12:43:55.479Z,31.28
2018-08-22T12:45:34.247Z,32.08
2018-08-22T12:47:14.781Z,30.92
2018-08-22T12:48:50.373Z,31.32
2018-08-22T12:50:28.928Z,32.19
2018-08-22T12:52:07.738Z,31.80
2018-08-22T12:53:45.651Z,30.53
2018-08-22T12:55:22.500Z,31.10
2018-08-22T12:56:58.349Z,31.28
2018-08-22T12:58:33.523Z,30.49
2018-08-22T13:00:08.870Z,30.40
2018-08-22T13:01:45.255Z,30.96
2018-08-22T13:03:23.287Z,31.76
2018-08-22T13:05:04.599Z,30.13
2018-08-22T13:06:44.290Z,30.59
2018-08-22T13:08:20.916Z,30.94
2018-08-22T13:10:00.295Z,31.44
2018-08-22T13:11:37.000Z,31.49
2018-08-22T13:13:15.914Z,30.35
2018-08-22T13:14:52.750Z,30.96
2018-08-22T13:16:42.885Z,32.35
2018-08-22T13:18:19.425Z,32.12
2018-08-22T13:19:55.870Z,31.31
2018-08-22T13:21:32.110Z,31.17
2018-08-22T13:23:15.652Z,32.69
2018-08-22T13:24:52.599Z,31.18
2018-08-22T13:26:31.604Z,31.10
2018-08-22T13:28:09.278Z,31.38
2018-08-22T13:29:52.210Z,31.26
2018-08-22T13:31:29.917Z,31.91
2018-08-22T13:33:05.683Z,32.31
2018-08-22T13:34:42.167Z,30.97
2018-08-22T13:36:20.415Z,31.67
2018-08-22T13:37:57.936Z,31.71
2018-08-22T13:39:35.568Z,33.08
2018-08-22T13:41:11.691Z,32.50
2018-08-22T13:42:48.418Z,33.17
2018-08-22T13:44:25.476Z,33.16
2018-08-22T13:46:03.763Z,32.28
2018-08-22T13:47:40.895Z,33.54
2018-08-22T13:49:17.245Z,32.69
2018-08-22T13:50:53.024Z,33.08
2018-08-22T13:52:29.833Z,33.92
2018-08-22T13:54:07.293Z,33.34
2018-08-22T13:55:43.408Z,33.04
2018-08-22T13:57:21.822Z,33.35
2018-08-22T13:59:00.833Z,33.27
2018-08-22T14:00:37.297Z,32.87
2018-08-22T14:02:13.849Z,32.88
2018-08-22T14:03:55.491Z,33.51
2018-08-22T14:05:33.554Z,33.05
2018-08-22T14:07:10.779Z,35.02
2018-08-22T14:08:47.516Z,32.44
2018-08-22T14:10:26.646Z,34.06
2018-08-22T14:12:05.194Z,34.75
2018-08-22T14:13:42.833Z,33.69
2018-08-22T14:15:21.565Z,33.65
2018-08-22T14:16:59.700Z,33.85
2018-08-22T14:18:35.864Z,32.49
2018-08-22T14:20:13.163Z,32.43
2018-08-22T14:21:53.289Z,34.12
2018-08-22T14:23:31.979Z,34.32
2018-08-22T14:25:14.162Z,33.98
2018-08-22T14:26:53.112Z,33.59
2018-08-22T14:29:40.335Z,33.25
2018-08-22T14:31:19.771Z,34.58
2018-08-22T14:32:56.661Z,32.61
2018-08-22T14:34:32.776Z,34.22
2018-08-22T14:36:10.471Z,33.24
2018-08-22T14:37:46.216Z,33.36
2018-08-22T14:39:22.004Z,34.13
2018-08-22T14:40:57.386Z,33.63
2018-08-22T14:42:35.929Z,32.61
2018-08-22T14:44:12.517Z,34.12
2018-08-22T14:45:47.939Z,34.81
2018-08-22T14:47:28.396Z,34.21
2018-08-22T14:49:06.592Z,35.75
2018-08-22T14:50:43.101Z,35.82
2018-08-22T14:52:18.447Z,35.80
2018-08-22T14:53:55.475Z,34.10
2018-08-22T14:55:33.110Z,34.64
2018-08-22T14:57:10.965Z,34.94
2018-08-22T14:58:49.489Z,34.36
2018-08-22T15:00:27.476Z,34.96
2018-08-22T15:02:04.412Z,34.82
2018-08-22T15:03:42.615Z,34.78
2018-08-22T15:05:23.207Z,34.73
2018-08-22T15:06:59.666Z,34.56
2018-08-22T15:08:35.603Z,34.60
2018-08-22T15:10:15.905Z,33.97
2018-08-22T15:11:54.705Z,33.54
2018-08-22T15:13:32.774Z,35.29
2018-08-22T15:15:09.634Z,35.54
2018-08-22T15:16:46.805Z,35.15
2018-08-22T15:18:23.475Z,35.80
2018-08-22T15:19:58.749Z,36.19
2018-08-22T15:21:38.443Z,35.44
2018-08-22T15:23:15.404Z,34.30
2018-08-22T15:24:55.142Z,34.36
2018-08-22T15:28:23.694Z,36.04
2018-08-22T15:30:16.781Z,36.37
2018-08-22T15:32:04.656Z,35.78
2018-08-22T15:33:40.539Z,37.18
2018-08-22T15:35:16.143Z,37.33
2018-08-22T15:36:56.372Z,37.18
2018-08-22T15:38:35.260Z,37.96
2018-08-22T15:40:11.926Z,36.57
2018-08-22T15:41:48.896Z,37.75
2018-08-22T15:43:25.437Z,36.78
2018-08-22T15:45:00.488Z,37.44
2018-08-22T15:46:36.080Z,37.56
2018-08-22T15:48:16.527Z,37.69
2018-08-22T15:49:57.483Z,38.96
2018-08-22T15:51:38.954Z,39.91
2018-08-22T15:53:14.379Z,39.56
2018-08-22T15:55:05.342Z,40.13
2018-08-22T15:56:42.976Z,39.53
2018-08-22T15:58:18.865Z,41.14
2018-08-22T15:59:58.695Z,40.47
2018-08-22T16:01:36.581Z,40.41
2018-08-22T16:03:15.231Z,39.68
2018-08-22T16:04:59.155Z,40.73
2018-08-22T16:06:37.262Z,41.58
2018-08-22T16:08:21.598Z,40.48
2018-08-22T16:09:57.135Z,40.43
2018-08-22T16:11:42.380Z,41.48
2018-08-22T16:13:22.658Z,41.84
2018-08-22T16:15:00.174Z,42.00
2018-08-22T16:16:35.946Z,41.64
2018-08-22T16:18:11.603Z,41.13
2018-08-22T16:19:46.748Z,41.59
2018-08-22T16:21:22.716Z,42.29
2018-08-22T16:22:58.504Z,42.32
2018-08-22T16:24:36.861Z,41.47
2018-08-22T16:26:12.142Z,41.94
2018-08-22T16:27:52.547Z,42.59
2018-08-22T16:29:30.248Z,43.57
2018-08-22T16:31:07.588Z,43.46
2018-08-22T16:32:47.317Z,42.84
2018-08-22T16:34:24.529Z,43.88
2018-08-22T16:36:00.739Z,44.41
2018-08-22T16:37:39.459Z,43.04
2018-08-22T16:39:20.521Z,43.75
2018-08-22T16:42:44.000Z,42.65
2018-08-22T16:44:20.103Z,44.05
2018-08-22T16:45:56.552Z,43.29
2018-08-22T16:47:37.472Z,43.04
2018-08-22T16:49:17.777Z,44.32
2018-08-22T16:50:55.257Z,43.43
2018-08-22T16:52:38.817Z,43.57
2018-08-22T16:54:16.323Z,43.69
2018-08-22T16:56:00.723Z,45.01
2018-08-22T16:57:36.100Z,44.64
2018-08-22T17:00:56.948Z,44.01
2018-08-22T17:02:34.204Z,45.10
2018-08-22T17:04:11.922Z,44.37
2018-08-22T17:05:48.896Z,44.05
2018-08-22T17:07:26.235Z,44.45
2018-08-22T17:09:04.416Z,44.96
2018-08-22T17:10:52.030Z,44.35
2018-08-22T17:12:40.277Z,44.17
2018-08-22T17:14:16.202Z,44.55
2018-08-22T17:15:52.996Z,45.03
2018-08-22T17:18:43.952Z,45.20
2018-08-22T17:20:19.645Z,44.27
2018-08-22T17:22:00.637Z,44.46
2018-08-22T17:23:38.008Z,44.71
2018-08-22T17:25:20.056Z,45.39
2018-08-22T17:27:00.348Z,45.24
2018-08-22T17:28:39.317Z,44.85
2018-08-22T17:30:20.526Z,45.22
2018-08-22T17:32:06.490Z,44.56
2018-08-22T17:33:47.813Z,45.00
2018-08-22T17:35:27.320Z,44.95
2018-08-22T17:37:08.551Z,45.39
2018-08-22T17:38:47.618Z,45.98
2018-08-22T17:40:23.798Z,45.45
2018-08-22T17:42:01.580Z,46.70
2018-08-22T17:43:51.744Z,46.23
2018-08-22T17:45:34.821Z,46.63
2018-08-22T17:47:14.624Z,46.92
2018-08-22T17:48:54.759Z,47.04
2018-08-22T17:50:32.351Z,46.37
2018-08-22T17:52:12.143Z,46.96
2018-08-22T17:53:47.231Z,46.56
2018-08-22T17:55:22.830Z,47.22
2018-08-22T17:57:13.362Z,48.12
2018-08-22T17:58:53.380Z,48.23
2018-08-22T18:00:38.645Z,47.64
2018-08-22T18:02:15.125Z,48.73
2018-08-22T18:03:53.300Z,48.87
2018-08-22T18:05:38.449Z,48.27
2018-08-22T18:07:20.096Z,49.44
2018-08-22T18:08:57.275Z,48.56
2018-08-22T18:10:36.286Z,49.57
2018-08-22T18:12:19.124Z,48.87
2018-08-22T18:13:58.586Z,49.74
2018-08-22T18:15:42.696Z,50.01
2018-08-22T18:19:09.803Z,50.02
2018-08-22T18:20:50.079Z,50.69
2018-08-22T18:22:31.880Z,50.86
2018-08-22T18:24:14.045Z,50.13
2018-08-22T18:25:54.636Z,50.35
2018-08-22T18:27:33.224Z,50.44
2018-08-22T18:29:11.372Z,51.14
2018-08-22T18:30:52.105Z,51.96
2018-08-22T18:32:43.385Z,52.07
2018-08-22T18:36:42.318Z,52.41
2018-08-22T18:38:19.889Z,51.97
2018-08-22T18:40:27.724Z,53.04
2018-08-22T18:42:05.705Z,53.02
2018-08-22T18:43:44.236Z,53.35
2018-08-22T18:45:28.989Z,54.10
2018-08-22T18:47:06.376Z,53.95
2018-08-22T18:48:44.740Z,54.91
2018-08-22T18:50:23.485Z,54.85
2018-08-22T18:52:15.020Z,55.94
2018-08-22T18:54:04.713Z,56.97
2018-08-22T18:55:43.713Z,57.51
2018-08-22T18:57:34.728Z,57.59
2018-08-22T18:59:29.569Z,56.82
2018-08-22T19:01:13.491Z,57.05
2018-08-22T19:03:00.767Z,57.14
2018-08-22T19:04:49.185Z,57.83
2018-08-22T19:08:24.842Z,58.12
2018-08-22T19:10:05.640Z,59.45
2018-08-22T19:11:44.444Z,59.52
2018-08-22T19:13:22.125Z,58.90
2018-08-22T19:15:09.226Z,58.60
2018-08-22T19:16:48.614Z,59.30
2018-08-22T19:18:31.018Z,59.34
2018-08-22T19:20:14.329Z,59.02
2018-08-22T19:21:56.593Z,59.53
2018-08-22T19:23:35.909Z,59.77
2018-08-22T19:27:12.371Z,60.69
2018-08-22T19:29:00.776Z,61.70
2018-08-22T19:30:42.754Z,61.94
2018-08-22T19:32:36.770Z,61.93
2018-08-22T19:34:18.218Z,61.49
2018-08-22T19:35:56.760Z,62.61
2018-08-22T19:37:36.989Z,62.62
2018-08-22T19:39:16.262Z,63.00
2018-08-22T19:40:52.579Z,62.36
2018-08-22T19:42:30.928Z,63.38
2018-08-22T19:44:14.197Z,63.20
2018-08-22T19:45:51.262Z,62.60
2018-08-22T19:47:48.947Z,62.87
2018-08-22T19:49:43.769Z,63.41
2018-08-22T19:53:18.227Z,63.08
2018-08-22T19:55:01.215Z,63.02
2018-08-22T19:56:39.272Z,63.54
2018-08-22T19:58:25.166Z,64.30
2018-08-22T20:00:10.622Z,64.27
2018-08-22T20:01:55.493Z,65.21
2018-08-22T20:03:36.779Z,64.96
2018-08-22T20:05:20.461Z,65.32
2018-08-22T20:07:01.954Z,65.60
2018-08-22T20:08:45.866Z,65.00
2018-08-22T20:12:11.504Z,65.50
2018-08-22T20:14:00.446Z,64.45
2018-08-22T20:15:52.505Z,64.98
2018-08-22T20:17:35.668Z,66.41
2018-08-22T20:21:15.278Z,65.67
2018-08-22T20:23:01.678Z,66.23
2018-08-22T20:24:45.017Z,66.28
2018-08-22T20:26:32.778Z,65.84
2018-08-22T20:28:16.688Z,66.26
2018-08-22T20:30:18.070Z,65.88
2018-08-22T20:32:00.762Z,66.01
2018-08-22T20:33:44.744Z,66.28
2018-08-22T20:35:28.281Z,66.29
2018-08-22T20:37:07.463Z,66.82
2018-08-22T20:38:51.461Z,67.59
2018-08-22T20:40:34.082Z,66.59
2018-08-22T20:42:18.819Z,66.68
2018-08-22T20:43:57.306Z,67.66
2018-08-22T20:45:38.098Z,67.85
2018-08-22T20:47:18.887Z,67.95
2018-08-22T20:48:59.381Z,68.88
2018-08-22T20:50:43.747Z,67.54
2018-08-22T20:52:23.193Z,68.94
2018-08-22T20:54:08.473Z,69.07
2018-08-22T20:55:46.079Z,69.12
2018-08-22T20:57:28.983Z,69.40
2018-08-22T20:59:10.140Z,68.66
2018-08-22T21:00:53.768Z,68.23
2018-08-22T21:02:34.693Z,69.08
2018-08-22T21:04:13.555Z,68.32
2018-08-22T21:05:57.744Z,68.17
2018-08-22T21:07:38.515Z,68.93
2018-08-22T21:09:16.456Z,69.49
2018-08-22T21:10:52.160Z,69.63
2018-08-22T21:12:29.160Z,68.59
2018-08-22T21:14:14.327Z,68.67
2018-08-22T21:15:53.398Z,69.27
2018-08-22T21:17:46.644Z,69.13
2018-08-22T21:19:25.252Z,68.95
2018-08-22T21:21:08.121Z,69.26
2018-08-22T21:22:46.021Z,68.76
2018-08-22T21:24:26.475Z,68.84
2018-08-22T21:26:08.194Z,69.67